Time;durP1;ratioP1;P1;durP2;ratioP2;P2;SDS_P1;SDS_P2;PMS_P1;PMS_P2;Temp;Humidity;BMP_temperature;BMP_pressure;BME280_temperature;BME280_humidity;BME280_pressure;Samples;Min_cycle;Max_cycle;Signal;HPM_P1;HPM_P2
2023/08/16 00:02:03;;;;;;;6.93;5.63;;;19.30;99.90;;;;;;5037199;28;20883;-71
2023/08/16 00:04:34;;;;;;;6.23;5.60;;;19.30;99.90;;;;;;5037239;28;20478;-71
2023/08/16 00:07:02;;;;;;;7.83;6.93;;;19.30;99.90;;;;;;5037418;28;20548;-71
2023/08/16 00:09:30;;;;;;;7.50;6.10;;;19.30;99.90;;;;;;5037158;28;20434;-71
2023/08/16 00:11:59;;;;;;;6.70;6.03;;;19.20;99.90;;;;;;5037017;28;20467;-71
2023/08/16 00:14:27;;;;;;;7.50;5.70;;;19.20;99.90;;;;;;5036971;28;21041;-71
2023/08/16 00:16:57;;;;;;;7.10;6.40;;;19.20;99.90;;;;;;5037135;28;20841;-71
2023/08/16 00:19:26;;;;;;;8.03;6.30;;;19.10;99.90;;;;;;5037054;28;20457;-71
2023/08/16 00:21:56;;;;;;;8.23;6.47;;;19.10;99.90;;;;;;5037395;28;20967;-71
2023/08/16 00:24:24;;;;;;;8.80;6.63;;;19.00;99.90;;;;;;5036763;28;21077;-71
2023/08/16 00:26:52;;;;;;;7.67;6.37;;;19.00;99.90;;;;;;5036666;28;20446;-71
2023/08/16 00:29:20;;;;;;;8.20;6.33;;;19.00;99.90;;;;;;5019225;28;20553;-71
2023/08/16 00:31:48;;;;;;;6.87;6.20;;;19.00;99.90;;;;;;5019178;28;20541;-71
2023/08/16 00:34:17;;;;;;;7.23;6.53;;;18.90;99.90;;;;;;5018892;28;20470;-71
2023/08/16 00:36:45;;;;;;;7.63;5.93;;;18.90;99.90;;;;;;5037058;28;20434;-71
2023/08/16 00:39:15;;;;;;;7.60;5.60;;;18.90;99.90;;;;;;5018702;28;20965;-71
2023/08/16 00:41:43;;;;;;;6.73;6.00;;;18.90;99.90;;;;;;5018988;28;20455;-71
2023/08/16 00:44:11;;;;;;;6.70;6.00;;;18.80;99.90;;;;;;5036257;28;20470;-71
2023/08/16 00:46:39;;;;;;;7.47;6.77;;;18.80;99.90;;;;;;5018650;28;20667;-71
2023/08/16 00:49:07;;;;;;;9.10;7.17;;;18.80;99.90;;;;;;5018478;28;20446;-71
2023/08/16 00:51:38;;;;;;;7.30;6.60;;;18.80;99.90;;;;;;5036221;28;20446;-71
2023/08/16 00:54:07;;;;;;;7.47;6.27;;;18.70;99.90;;;;;;5018602;28;20542;-71
2023/08/16 00:56:37;;;;;;;7.77;6.23;;;18.70;99.90;;;;;;5018404;28;20497;-71
2023/08/16 00:59:06;;;;;;;8.23;6.20;;;18.70;99.90;;;;;;5018431;28;20529;-71
2023/08/16 01:01:34;;;;;;;6.50;5.90;;;18.70;99.90;;;;;;5017346;28;20455;-71
2023/08/16 01:04:05;;;;;;;9.57;6.33;;;18.60;99.90;;;;;;5018249;28;20471;-71
2023/08/16 01:06:34;;;;;;;7.50;6.40;;;18.60;99.90;;;;;;5018335;28;20591;-71
2023/08/16 01:09:03;;;;;;;6.73;5.70;;;18.60;99.90;;;;;;5018179;28;20447;-71
2023/08/16 01:11:42;;;;;;;7.63;5.77;;;18.60;99.90;;;;;;5036015;28;20435;-71
2023/08/16 01:14:14;;;;;;;6.57;5.90;;;18.60;99.90;;;;;;5036178;28;20454;-71
2023/08/16 01:16:44;;;;;;;8.00;6.10;;;18.50;99.90;;;;;;5036435;28;20458;-71
2023/08/16 01:19:19;;;;;;;6.23;5.60;;;18.50;99.90;;;;;;5035883;28;20535;-71
2023/08/16 01:21:54;;;;;;;5.50;5.00;;;18.50;99.90;;;;;;5018147;28;20431;-71
2023/08/16 01:24:31;;;;;;;6.13;5.53;;;18.40;99.90;;;;;;5035607;28;20524;-71
2023/08/16 01:27:02;;;;;;;7.20;4.70;;;18.40;99.90;;;;;;5035944;28;20536;-71
2023/08/16 01:29:31;;;;;;;7.00;4.67;;;18.40;99.90;;;;;;5017845;28;20537;-71
2023/08/16 01:32:00;;;;;;;8.60;4.50;;;18.30;99.90;;;;;;5017812;28;20451;-71
2023/08/16 01:34:28;;;;;;;6.90;5.80;;;18.30;99.90;;;;;;5035630;28;20882;-71
2023/08/16 01:36:56;;;;;;;8.13;5.37;;;18.30;99.90;;;;;;5017666;28;20641;-71
2023/08/16 01:39:25;;;;;;;8.50;4.90;;;18.30;99.90;;;;;;5035978;28;20413;-71
2023/08/16 01:41:57;;;;;;;7.57;4.83;;;18.20;99.90;;;;;;5035341;28;20979;-71
2023/08/16 01:44:27;;;;;;;10.63;5.03;;;18.30;99.90;;;;;;5017345;28;20482;-71
2023/08/16 01:46:56;;;;;;;6.00;4.70;;;18.20;99.90;;;;;;5035364;28;20446;-71
2023/08/16 01:49:25;;;;;;;7.10;6.00;;;18.20;99.90;;;;;;5035310;28;20870;-71
2023/08/16 01:51:53;;;;;;;5.43;4.93;;;18.20;99.90;;;;;;5035138;28;20434;-71
2023/08/16 01:54:22;;;;;;;6.30;5.13;;;18.20;99.90;;;;;;5035078;28;20554;-71
2023/08/16 01:56:50;;;;;;;5.67;5.00;;;18.10;99.90;;;;;;5035639;28;20792;-71
2023/08/16 01:59:18;;;;;;;6.80;4.60;;;18.10;99.90;;;;;;5017301;28;20454;-71
2023/08/16 02:01:48;;;;;;;6.53;5.57;;;18.10;99.90;;;;;;5017347;28;20776;-71
2023/08/16 02:04:16;;;;;;;5.63;5.03;;;18.10;99.90;;;;;;5017145;28;20481;-71
2023/08/16 02:06:45;;;;;;;7.13;5.80;;;18.00;99.90;;;;;;5017188;28;20446;-71
2023/08/16 02:09:14;;;;;;;7.00;5.33;;;18.00;99.90;;;;;;5034900;28;20496;-71
2023/08/16 02:11:42;;;;;;;6.60;5.97;;;18.00;99.90;;;;;;5035143;28;20962;-71
2023/08/16 02:14:10;;;;;;;6.07;5.43;;;17.90;99.90;;;;;;5016999;28;20556;-71
2023/08/16 02:16:39;;;;;;;5.93;5.33;;;17.90;99.90;;;;;;5016991;28;20470;-71
2023/08/16 02:19:08;;;;;;;8.83;6.53;;;17.90;99.90;;;;;;5017121;28;20450;-71
2023/08/16 02:21:38;;;;;;;6.57;5.40;;;17.90;99.90;;;;;;5034660;28;20505;-71
2023/08/16 02:24:07;;;;;;;6.37;5.70;;;17.90;99.90;;;;;;5016703;28;20478;-71
2023/08/16 02:26:37;;;;;;;7.20;6.50;;;17.80;99.90;;;;;;5016787;28;20482;-71
2023/08/16 02:29:05;;;;;;;6.27;5.67;;;17.80;99.90;;;;;;5016759;28;20422;-71
2023/08/16 02:31:34;;;;;;;5.33;4.93;;;17.80;99.90;;;;;;5016755;28;20453;-71
2023/08/16 02:34:02;;;;;;;6.80;6.10;;;17.80;99.90;;;;;;5016543;28;20487;-71
2023/08/16 02:36:32;;;;;;;7.10;6.40;;;17.70;99.90;;;;;;5016654;28;20422;-71
2023/08/16 02:39:00;;;;;;;11.30;6.40;;;17.70;99.90;;;;;;5034623;28;20431;-71
2023/08/16 02:41:30;;;;;;;7.00;6.37;;;17.70;99.90;;;;;;5016540;28;20454;-71
2023/08/16 02:43:58;;;;;;;7.27;5.77;;;17.70;99.90;;;;;;5016360;28;20893;-71
2023/08/16 02:46:26;;;;;;;8.63;6.73;;;17.60;99.90;;;;;;5016440;28;20834;-71
2023/08/16 02:48:54;;;;;;;7.83;7.03;;;17.60;99.90;;;;;;5034238;28;20934;-71
2023/08/16 02:51:22;;;;;;;8.83;6.80;;;17.60;99.90;;;;;;5034133;28;20877;-71
2023/08/16 02:53:52;;;;;;;7.67;6.70;;;17.60;99.90;;;;;;5016182;28;20702;-71
2023/08/16 02:56:20;;;;;;;6.53;5.93;;;17.60;99.90;;;;;;5034004;28;20431;-71
2023/08/16 02:58:48;;;;;;;8.00;7.20;;;17.50;99.90;;;;;;5016254;28;20517;-71
2023/08/16 03:01:16;;;;;;;8.27;7.33;;;17.50;99.90;;;;;;5016391;28;20460;-71
2023/08/16 03:03:47;;;;;;;9.27;7.53;;;17.50;99.90;;;;;;5033989;28;20560;-71
2023/08/16 03:06:15;;;;;;;8.13;7.20;;;17.50;99.90;;;;;;5016327;28;20505;-71
2023/08/16 03:08:43;;;;;;;9.60;8.10;;;17.40;99.90;;;;;;5033905;28;20928;-71
2023/08/16 03:11:13;;;;;;;8.93;8.13;;;17.40;99.90;;;;;;5016034;28;20443;-71
2023/08/16 03:13:42;;;;;;;8.63;7.50;;;17.40;99.90;;;;;;5033571;28;20456;-71
2023/08/16 03:16:10;;;;;;;8.50;7.70;;;17.40;99.90;;;;;;5016094;28;20429;-71
2023/08/16 03:18:38;;;;;;;8.67;7.87;;;17.40;99.90;;;;;;5033624;28;20435;-71
2023/08/16 03:21:06;;;;;;;11.47;10.40;;;17.30;99.90;;;;;;5033542;28;20452;-71
2023/08/16 03:23:36;;;;;;;14.40;9.30;;;17.30;99.90;;;;;;5015748;28;20478;-71
2023/08/16 03:26:04;;;;;;;12.53;11.33;;;17.30;99.90;;;;;;5015372;28;20852;-71
2023/08/16 03:28:34;;;;;;;14.97;13.67;;;17.30;99.90;;;;;;5015641;28;20443;-71
2023/08/16 03:31:07;;;;;;;12.83;11.53;;;17.30;99.90;;;;;;5015766;28;20493;-71
2023/08/16 03:33:37;;;;;;;11.13;10.10;;;17.20;99.90;;;;;;5015593;28;21021;-71
2023/08/16 03:36:06;;;;;;;10.13;9.13;;;17.20;99.90;;;;;;5015615;28;20453;-71
2023/08/16 03:38:34;;;;;;;10.57;9.10;;;17.20;99.90;;;;;;5033601;28;20471;-71
2023/08/16 03:41:02;;;;;;;9.10;8.20;;;17.20;99.90;;;;;;5015881;28;20810;-71
2023/08/16 03:43:31;;;;;;;9.20;8.20;;;17.20;99.90;;;;;;5033196;28;20462;-71
2023/08/16 03:46:01;;;;;;;10.00;9.00;;;17.20;99.90;;;;;;5033172;28;20481;-71
2023/08/16 03:48:30;;;;;;;9.70;8.33;;;17.10;99.90;;;;;;5033479;28;20413;-71
2023/08/16 03:50:58;;;;;;;11.87;9.03;;;17.10;99.90;;;;;;5033169;28;20513;-71
2023/08/16 03:53:26;;;;;;;11.30;8.77;;;17.10;99.90;;;;;;5033050;28;20430;-71
2023/08/16 03:55:56;;;;;;;16.67;8.83;;;17.10;99.90;;;;;;5033167;28;20501;-71
2023/08/16 03:58:25;;;;;;;9.83;8.83;;;17.00;99.90;;;;;;5015903;28;20809;-71
2023/08/16 04:00:53;;;;;;;9.43;8.00;;;17.00;99.90;;;;;;5015293;28;20562;-71
2023/08/16 04:03:23;;;;;;;9.60;8.53;;;17.00;99.90;;;;;;5033128;28;20450;-71
2023/08/16 04:05:51;;;;;;;9.53;8.53;;;17.00;99.90;;;;;;5016094;28;20481;-71
2023/08/16 04:08:19;;;;;;;9.73;8.83;;;17.00;99.90;;;;;;5015376;28;20481;-70
2023/08/16 04:10:48;;;;;;;10.07;9.03;;;17.00;99.90;;;;;;5015588;28;20567;-71
2023/08/16 04:13:17;;;;;;;10.07;8.77;;;16.90;99.90;;;;;;5015382;28;20442;-71
2023/08/16 04:15:45;;;;;;;13.47;9.53;;;16.90;99.90;;;;;;5015262;28;20554;-71
2023/08/16 04:18:13;;;;;;;12.60;9.20;;;16.90;99.90;;;;;;5015379;28;20443;-71
2023/08/16 04:20:42;;;;;;;11.03;9.10;;;16.90;99.90;;;;;;5033106;28;20783;-71
2023/08/16 04:23:10;;;;;;;13.23;10.53;;;16.80;99.90;;;;;;5033262;28;20477;-71
2023/08/16 04:25:39;;;;;;;10.53;9.50;;;16.80;99.90;;;;;;5032890;28;20823;-71
2023/08/16 04:28:07;;;;;;;11.50;10.50;;;16.80;99.90;;;;;;5015212;28;20531;-71
2023/08/16 04:30:36;;;;;;;10.83;9.73;;;16.80;99.90;;;;;;5015071;28;20501;-71
2023/08/16 04:33:04;;;;;;;11.30;9.57;;;16.80;99.90;;;;;;5015050;28;20445;-71
2023/08/16 04:35:33;;;;;;;11.40;10.30;;;16.80;99.90;;;;;;5015087;28;20441;-71
2023/08/16 04:38:02;;;;;;;11.90;10.83;;;16.80;99.90;;;;;;5018008;28;20417;-71
2023/08/16 04:40:31;;;;;;;9.03;8.23;;;16.80;99.90;;;;;;5036665;28;20418;-71
2023/08/16 04:42:59;;;;;;;10.90;9.70;;;16.80;99.90;;;;;;5018643;28;20424;-71
2023/08/16 04:45:27;;;;;;;11.00;10.00;;;16.80;99.90;;;;;;5036312;28;20505;-71
2023/08/16 04:47:56;;;;;;;10.90;9.73;;;16.80;99.90;;;;;;5036680;28;20526;-71
2023/08/16 04:50:24;;;;;;;11.33;10.33;;;16.70;99.90;;;;;;5036955;28;20425;-70
2023/08/16 04:52:53;;;;;;;13.80;11.53;;;16.70;99.90;;;;;;5019367;28;20857;-70
2023/08/16 04:55:26;;;;;;;11.30;10.13;;;16.70;99.90;;;;;;5019348;28;20509;-70
2023/08/16 04:57:54;;;;;;;12.20;9.87;;;16.70;99.90;;;;;;5018936;28;20417;-71
2023/08/16 05:00:23;;;;;;;11.97;10.30;;;16.70;99.90;;;;;;5019166;28;20459;-71
2023/08/16 05:02:55;;;;;;;11.40;10.20;;;16.70;99.90;;;;;;5018923;28;20439;-70
2023/08/16 05:05:25;;;;;;;11.13;10.03;;;16.70;99.90;;;;;;5036135;28;20447;-71
2023/08/16 05:07:55;;;;;;;12.30;11.10;;;16.70;99.90;;;;;;5018624;28;20447;-71
2023/08/16 05:10:23;;;;;;;12.63;11.53;;;16.80;99.90;;;;;;5036024;28;20439;-70
2023/08/16 05:12:53;;;;;;;11.87;10.60;;;16.80;99.90;;;;;;5018315;28;20425;-71
2023/08/16 05:15:21;;;;;;;12.07;10.93;;;16.80;99.90;;;;;;5036023;28;20526;-71
2023/08/16 05:17:49;;;;;;;12.63;10.30;;;16.80;99.90;;;;;;5018334;28;20516;-70
2023/08/16 05:20:17;;;;;;;12.23;10.97;;;16.80;99.90;;;;;;5018356;28;20421;-71
2023/08/16 05:22:46;;;;;;;11.80;10.60;;;16.80;99.90;;;;;;5035955;28;20410;-71
2023/08/16 05:25:14;;;;;;;12.97;11.67;;;16.80;99.90;;;;;;5036238;28;20449;-70
2023/08/16 05:27:42;;;;;;;12.57;11.27;;;16.80;99.90;;;;;;5036392;28;20522;-71
2023/08/16 05:30:12;;;;;;;12.63;11.47;;;16.80;99.90;;;;;;5036019;28;20406;-71
2023/08/16 05:32:40;;;;;;;14.33;12.00;;;16.80;99.90;;;;;;5017975;28;20516;-71
2023/08/16 05:35:09;;;;;;;15.47;13.97;;;16.90;99.90;;;;;;5036330;28;20433;-71
2023/08/16 05:37:37;;;;;;;16.53;12.90;;;16.90;99.90;;;;;;5035823;28;20432;-70
2023/08/16 05:40:06;;;;;;;13.70;12.27;;;16.90;99.90;;;;;;5035893;28;20451;-71
2023/08/16 05:42:34;;;;;;;12.90;11.60;;;16.90;99.90;;;;;;5035878;28;20505;-71
2023/08/16 05:45:02;;;;;;;12.20;11.00;;;17.00;99.90;;;;;;5017947;28;20490;-71
2023/08/16 05:47:32;;;;;;;12.90;11.20;;;17.00;99.90;;;;;;5035120;28;20802;-70
2023/08/16 05:50:01;;;;;;;12.27;11.07;;;17.00;99.90;;;;;;5035803;28;20864;-71
2023/08/16 05:52:29;;;;;;;11.87;10.77;;;17.00;99.90;;;;;;5035604;28;20432;-70
2023/08/16 05:54:57;;;;;;;15.83;14.23;;;17.00;99.90;;;;;;5035577;28;20425;-71
2023/08/16 05:57:25;;;;;;;12.77;11.57;;;17.00;99.90;;;;;;5035924;28;20504;-71
2023/08/16 05:59:53;;;;;;;11.83;10.70;;;17.10;99.90;;;;;;5035766;28;20442;-71
2023/08/16 06:02:23;;;;;;;12.97;11.57;;;17.10;99.90;;;;;;5035561;28;20405;-70
2023/08/16 06:04:53;;;;;;;17.20;12.00;;;17.10;99.90;;;;;;5035221;28;20455;-70
2023/08/16 06:07:21;;;;;;;13.80;12.40;;;17.10;99.90;;;;;;5035304;28;20529;-70
2023/08/16 06:09:51;;;;;;;13.10;11.90;;;17.20;99.90;;;;;;5035145;28;20425;-70
2023/08/16 06:12:19;;;;;;;11.93;10.73;;;17.30;99.90;;;;;;5017776;28;20470;-70
2023/08/16 06:14:47;;;;;;;14.00;12.60;;;17.40;99.90;;;;;;5036310;28;20438;-70
2023/08/16 06:17:15;;;;;;;14.03;12.63;;;17.50;99.90;;;;;;5035462;28;20424;-70
2023/08/16 06:19:44;;;;;;;14.63;13.13;;;17.60;99.90;;;;;;5017606;28;20527;-70
2023/08/16 06:22:13;;;;;;;15.43;13.43;;;17.70;99.90;;;;;;5017577;28;20512;-70
2023/08/16 06:24:41;;;;;;;16.40;12.33;;;17.90;99.90;;;;;;5035152;28;21064;-70
2023/08/16 06:27:10;;;;;;;14.47;13.23;;;18.00;99.90;;;;;;5035478;28;20452;-70
2023/08/16 06:29:38;;;;;;;11.80;10.60;;;18.20;99.90;;;;;;5035084;28;20530;-70
2023/08/16 06:32:06;;;;;;;12.07;10.87;;;18.40;99.90;;;;;;5034962;28;20517;-70
2023/08/16 06:34:35;;;;;;;11.20;10.20;;;18.60;99.90;;;;;;5034872;28;20458;-70
2023/08/16 06:37:03;;;;;;;12.60;10.23;;;18.80;99.90;;;;;;5017373;28;20466;-70
2023/08/16 06:39:33;;;;;;;14.40;9.30;;;18.90;99.90;;;;;;5034707;28;21002;-70
2023/08/16 06:42:01;;;;;;;11.23;10.10;;;19.10;99.90;;;;;;5034571;28;20439;-71
2023/08/16 06:44:29;;;;;;;10.90;8.87;;;19.30;99.90;;;;;;5017035;28;20550;-71
2023/08/16 06:46:57;;;;;;;14.90;11.90;;;19.50;99.90;;;;;;5034687;28;20496;-70
2023/08/16 06:49:25;;;;;;;10.10;9.10;;;19.60;99.90;;;;;;5035205;28;20474;-71
2023/08/16 06:51:53;;;;;;;10.93;9.80;;;19.70;99.90;;;;;;5016630;28;20451;-71
2023/08/16 06:54:22;;;;;;;9.30;6.93;;;19.90;99.90;;;;;;5034302;28;20554;-71
2023/08/16 06:56:53;;;;;;;9.13;5.63;;;20.00;99.90;;;;;;5016549;28;20562;-70
2023/08/16 06:59:21;;;;;;;6.63;5.20;;;20.20;99.90;;;;;;5033845;28;20506;-70
2023/08/16 07:01:50;;;;;;;8.10;5.60;;;20.30;99.90;;;;;;5016759;28;20466;-71
2023/08/16 07:04:18;;;;;;;8.30;5.80;;;20.40;99.90;;;;;;5016764;28;20490;-70
2023/08/16 07:06:46;;;;;;;10.27;5.50;;;20.50;99.90;;;;;;5034530;28;20683;-69
2023/08/16 07:09:14;;;;;;;5.40;4.90;;;20.70;99.90;;;;;;5033948;28;20526;-69
2023/08/16 07:11:42;;;;;;;8.10;6.20;;;20.80;99.90;;;;;;5034225;28;21005;-70
2023/08/16 07:14:12;;;;;;;7.57;4.50;;;20.80;99.90;;;;;;5034468;28;20473;-70
2023/08/16 07:16:40;;;;;;;8.70;4.70;;;20.90;99.90;;;;;;5033944;28;20473;-70
2023/08/16 07:19:09;;;;;;;8.17;5.10;;;21.00;99.90;;;;;;5034222;28;20446;-70
2023/08/16 07:21:37;;;;;;;6.63;5.33;;;21.10;99.90;;;;;;5016292;28;20455;-70
2023/08/16 07:24:07;;;;;;;8.70;5.20;;;21.20;99.90;;;;;;5034267;28;20586;-70
2023/08/16 07:26:35;;;;;;;6.73;4.00;;;21.20;99.90;;;;;;5034434;28;20439;-70
2023/08/16 07:29:04;;;;;;;11.03;6.07;;;21.30;99.90;;;;;;5034581;28;20928;-70
2023/08/16 07:31:34;;;;;;;6.27;3.23;;;21.40;99.90;;;;;;5033763;28;20493;-71
2023/08/16 07:34:02;;;;;;;8.80;3.80;;;21.40;99.90;;;;;;5034160;28;20458;-70
2023/08/16 07:36:31;;;;;;;7.17;4.93;;;21.40;99.90;;;;;;5034733;28;20521;-70
2023/08/16 07:39:02;;;;;;;4.40;3.70;;;21.40;99.90;;;;;;5034619;28;20514;-70
2023/08/16 07:41:30;;;;;;;5.40;3.30;;;21.40;99.90;;;;;;5034028;28;20443;-70
2023/08/16 07:43:58;;;;;;;10.00;4.30;;;21.40;99.90;;;;;;5016076;28;20566;-70
2023/08/16 07:46:26;;;;;;;6.37;3.63;;;21.40;99.90;;;;;;5037778;28;20512;-70
2023/08/16 07:48:58;;;;;;;8.17;4.30;;;21.40;99.90;;;;;;5034990;28;21035;-70
2023/08/16 07:51:27;;;;;;;7.50;3.10;;;21.40;99.90;;;;;;5016248;28;20437;-70
2023/08/16 07:53:55;;;;;;;6.90;4.07;;;21.40;99.90;;;;;;5015887;28;20972;-70
2023/08/16 07:56:23;;;;;;;8.00;4.27;;;21.40;99.90;;;;;;5016055;28;20877;-71
2023/08/16 07:58:51;;;;;;;6.73;4.00;;;21.40;99.90;;;;;;5034198;28;20796;-70
2023/08/16 08:01:19;;;;;;;6.40;3.90;;;21.40;99.90;;;;;;5016175;28;20446;-70
2023/08/16 08:03:47;;;;;;;9.00;4.33;;;21.30;99.90;;;;;;5033965;28;20821;-70
2023/08/16 08:06:18;;;;;;;6.90;5.00;;;21.30;99.90;;;;;;5015956;28;20457;-71
2023/08/16 08:08:46;;;;;;;9.10;5.53;;;21.20;99.90;;;;;;5034011;28;20462;-71
2023/08/16 08:11:14;;;;;;;8.53;5.60;;;21.20;99.90;;;;;;5035277;28;20538;-70
2023/08/16 08:13:43;;;;;;;8.33;5.37;;;21.20;99.90;;;;;;5037627;28;20877;-70
2023/08/16 08:16:11;;;;;;;5.00;4.50;;;21.20;99.90;;;;;;5037702;28;20441;-71
2023/08/16 08:18:39;;;;;;;10.40;6.60;;;21.20;99.90;;;;;;5037582;28;20431;-73
2023/08/16 08:21:07;;;;;;;8.10;7.07;;;21.20;99.90;;;;;;5019717;28;20541;-70
2023/08/16 08:23:36;;;;;;;10.10;6.90;;;21.20;99.90;;;;;;5037236;28;20462;-70
2023/08/16 08:26:06;;;;;;;11.37;6.43;;;21.20;99.90;;;;;;5019448;28;20443;-70
2023/08/16 08:28:34;;;;;;;9.13;7.20;;;21.20;99.90;;;;;;5037388;28;20470;-70
2023/08/16 08:31:03;;;;;;;16.20;8.33;;;21.20;99.90;;;;;;5037271;28;20450;-70
2023/08/16 08:33:31;;;;;;;10.00;6.73;;;21.20;99.90;;;;;;5037560;28;20485;-70
2023/08/16 08:36:00;;;;;;;8.57;5.50;;;21.30;99.90;;;;;;5037953;28;20435;-71
2023/08/16 08:38:29;;;;;;;10.37;5.93;;;21.30;99.90;;;;;;5036950;28;20924;-71
2023/08/16 08:40:59;;;;;;;12.93;5.70;;;21.30;99.90;;;;;;5019142;28;20443;-71
2023/08/16 08:43:29;;;;;;;7.67;4.87;;;21.30;99.90;;;;;;5037391;28;20558;-71
2023/08/16 08:45:58;;;;;;;8.00;4.70;;;21.30;99.90;;;;;;5036802;28;20426;-71
2023/08/16 08:48:28;;;;;;;9.43;5.40;;;21.30;99.90;;;;;;5036563;28;20471;-71
2023/08/16 08:50:57;;;;;;;17.83;5.30;;;21.30;99.90;;;;;;5018802;28;20469;-71
2023/08/16 08:53:26;;;;;;;7.30;4.60;;;21.30;99.90;;;;;;5036484;28;20874;-71
2023/08/16 08:55:56;;;;;;;12.10;5.23;;;21.30;99.90;;;;;;5037033;28;20435;-71
2023/08/16 08:58:26;;;;;;;6.80;5.53;;;21.40;99.90;;;;;;5036404;28;20447;-70
2023/08/16 09:00:54;;;;;;;10.97;5.43;;;21.40;99.90;;;;;;5036472;28;20455;-70
2023/08/16 09:03:25;;;;;;;9.50;4.47;;;21.40;99.90;;;;;;5036296;28;20463;-70
2023/08/16 09:05:55;;;;;;;7.97;4.33;;;21.40;99.90;;;;;;5018579;28;20449;-70
2023/08/16 09:08:23;;;;;;;9.20;4.07;;;21.30;99.90;;;;;;5036532;28;20521;-70
2023/08/16 09:10:52;;;;;;;8.00;5.10;;;21.30;99.90;;;;;;5018486;28;20443;-71
2023/08/16 09:13:21;;;;;;;9.97;4.43;;;21.30;99.90;;;;;;5036619;28;20455;-70
2023/08/16 09:15:50;;;;;;;18.80;5.77;;;21.20;99.90;;;;;;5019032;28;20586;-70
2023/08/16 09:18:20;;;;;;;10.83;5.27;;;21.20;99.90;;;;;;5019039;28;20427;-71
2023/08/16 09:20:52;;;;;;;12.67;4.47;;;21.20;99.90;;;;;;5036857;28;20419;-70
2023/08/16 09:23:21;;;;;;;10.03;4.70;;;21.20;99.90;;;;;;5018145;28;20474;-71
2023/08/16 09:25:50;;;;;;;6.30;4.33;;;21.20;99.90;;;;;;5018795;28;20534;-71
2023/08/16 09:28:19;;;;;;;11.47;4.37;;;21.20;99.90;;;;;;5037180;28;20545;-71
2023/08/16 09:30:47;;;;;;;6.67;4.33;;;21.20;99.90;;;;;;5036680;28;20504;-71
2023/08/16 09:33:19;;;;;;;11.83;5.30;;;21.20;99.90;;;;;;5036785;28;20471;-71
2023/08/16 09:35:50;;;;;;;7.03;3.53;;;21.20;99.90;;;;;;5036596;28;20415;-71
2023/08/16 09:38:21;;;;;;;7.13;3.90;;;21.20;99.90;;;;;;5036834;28;20454;-70
2023/08/16 09:41:13;;;;;;;9.87;4.20;;;21.20;99.90;;;;;;5018574;28;20435;-70
2023/08/16 09:43:41;;;;;;;8.70;3.90;;;21.20;99.90;;;;;;5036548;28;20458;-71
2023/08/16 09:46:10;;;;;;;7.27;3.13;;;21.20;99.90;;;;;;5036701;28;20431;-70
2023/08/16 09:48:41;;;;;;;10.47;4.03;;;21.20;99.90;;;;;;5036745;28;20470;-71
2023/08/16 09:51:29;;;;;;;7.70;3.63;;;21.20;99.90;;;;;;5037028;28;20428;-71
2023/08/16 09:54:01;;;;;;;6.50;4.63;;;21.20;99.90;;;;;;5036297;28;20463;-71
2023/08/16 09:56:33;;;;;;;7.37;3.87;;;21.20;99.90;;;;;;5036426;28;20434;-71
2023/08/16 09:59:05;;;;;;;7.27;4.83;;;21.30;99.90;;;;;;5018334;28;20936;-71
2023/08/16 10:01:56;;;;;;;7.80;3.63;;;21.30;99.90;;;;;;5018392;28;20450;-71
2023/08/16 10:04:43;;;;;;;6.37;3.90;;;21.30;99.90;;;;;;5035942;28;20471;-71
2023/08/16 10:07:15;;;;;;;6.07;3.17;;;21.30;99.90;;;;;;5036212;28;20487;-71
2023/08/16 10:09:43;;;;;;;6.30;3.10;;;21.30;99.90;;;;;;5035659;28;20839;-71
2023/08/16 10:12:12;;;;;;;8.40;3.87;;;21.30;99.90;;;;;;5035864;28;20438;-71
2023/08/16 10:14:40;;;;;;;8.10;3.90;;;21.30;99.90;;;;;;5035683;28;20467;-71
2023/08/16 10:17:09;;;;;;;3.47;2.90;;;21.30;99.90;;;;;;5035737;28;20800;-70
2023/08/16 10:19:43;;;;;;;4.40;2.87;;;21.30;99.90;;;;;;5035876;28;20466;-70
2023/08/16 10:22:20;;;;;;;6.20;3.60;;;21.30;99.90;;;;;;5035812;28;20427;-70
2023/08/16 10:24:53;;;;;;;6.50;3.50;;;21.30;99.90;;;;;;5035653;28;20553;-70
2023/08/16 10:27:22;;;;;;;7.57;4.13;;;21.30;99.90;;;;;;5035683;28;20533;-70
2023/08/16 10:29:57;;;;;;;4.80;2.90;;;21.30;99.90;;;;;;5035239;28;21078;-70
2023/08/16 10:32:26;;;;;;;5.00;3.50;;;21.30;99.90;;;;;;5036142;28;20841;-70
2023/08/16 10:34:58;;;;;;;4.73;3.13;;;21.30;99.90;;;;;;5033586;28;20508;-70
2023/08/16 10:37:26;;;;;;;7.87;3.50;;;21.30;99.90;;;;;;5036807;28;20419;-70
2023/08/16 10:39:55;;;;;;;4.10;2.97;;;21.30;99.90;;;;;;5036472;28;20865;-70
2023/08/16 10:42:29;;;;;;;4.30;3.00;;;21.30;99.90;;;;;;5035615;28;20510;-70
2023/08/16 10:44:57;;;;;;;7.63;3.60;;;21.30;99.90;;;;;;5035490;28;20463;-71
2023/08/16 10:47:29;;;;;;;7.40;3.63;;;21.30;99.90;;;;;;5035086;28;20928;-70
2023/08/16 10:50:00;;;;;;;6.63;3.57;;;21.30;99.90;;;;;;5034302;28;20569;-71
2023/08/16 10:52:29;;;;;;;6.83;3.83;;;21.30;99.90;;;;;;5034593;28;20423;-71
2023/08/16 10:55:00;;;;;;;6.00;4.10;;;21.40;99.90;;;;;;5034046;28;20551;-71
2023/08/16 10:57:28;;;;;;;7.30;4.37;;;21.40;99.90;;;;;;5034173;28;20443;-70
2023/08/16 11:00:05;;;;;;;7.00;4.20;;;21.40;99.90;;;;;;5034216;28;20955;-71
2023/08/16 11:02:36;;;;;;;9.23;3.80;;;21.40;99.90;;;;;;5034572;28;20785;-71
2023/08/16 11:05:15;;;;;;;6.73;4.60;;;21.40;99.90;;;;;;5033821;28;20462;-71
2023/08/16 11:07:44;;;;;;;6.53;4.53;;;21.40;99.90;;;;;;5034157;28;20415;-70
2023/08/16 11:10:12;;;;;;;6.63;4.13;;;21.40;99.90;;;;;;5017046;28;20474;-70
2023/08/16 11:12:41;;;;;;;6.07;4.53;;;21.40;99.90;;;;;;5033942;28;20522;-70
2023/08/16 11:15:10;;;;;;;8.40;4.30;;;21.40;99.90;;;;;;5033580;28;20459;-70
2023/08/16 11:17:42;;;;;;;6.20;4.43;;;21.40;99.90;;;;;;5033694;28;20469;-70
2023/08/16 11:20:21;;;;;;;5.90;4.77;;;21.40;99.90;;;;;;5033727;28;20423;-70
2023/08/16 11:22:49;;;;;;;8.17;4.77;;;21.40;99.90;;;;;;5033466;28;20990;-70
2023/08/16 11:25:17;;;;;;;5.53;4.70;;;21.40;99.90;;;;;;5033953;28;21020;-70
2023/08/16 11:27:45;;;;;;;4.93;4.30;;;21.40;99.90;;;;;;5033568;28;20431;-70
2023/08/16 11:30:14;;;;;;;6.03;4.80;;;21.40;99.90;;;;;;5033430;28;20466;-70
2023/08/16 11:32:42;;;;;;;6.87;4.93;;;21.40;99.90;;;;;;5033449;28;20470;-71
2023/08/16 11:35:12;;;;;;;7.60;5.07;;;21.40;99.90;;;;;;5033314;28;20463;-71
2023/08/16 11:37:42;;;;;;;7.07;4.37;;;21.40;99.90;;;;;;5033565;28;20793;-71
2023/08/16 11:40:11;;;;;;;6.10;4.70;;;21.40;99.90;;;;;;5033757;28;20477;-71
2023/08/16 11:42:39;;;;;;;6.83;4.10;;;21.40;99.90;;;;;;5033870;28;20467;-71
2023/08/16 11:45:18;;;;;;;4.40;4.00;;;21.50;99.90;;;;;;5033073;28;20474;-71
2023/08/16 11:47:50;;;;;;;5.87;3.93;;;21.50;99.90;;;;;;5033266;28;20485;-70
2023/08/16 11:50:19;;;;;;;5.33;4.10;;;21.50;99.90;;;;;;5033438;28;20814;-70
2023/08/16 11:52:58;;;;;;;5.70;4.23;;;21.60;99.90;;;;;;5033457;28;20435;-70
2023/08/16 11:55:29;;;;;;;5.90;3.53;;;21.60;99.90;;;;;;5015626;28;20439;-70
2023/08/16 11:58:03;;;;;;;6.30;4.60;;;21.60;99.90;;;;;;5033584;28;20753;-70
2023/08/16 12:00:32;;;;;;;7.80;4.00;;;21.60;99.90;;;;;;5033215;28;20509;-71
2023/08/16 12:03:02;;;;;;;5.63;3.60;;;21.60;99.90;;;;;;5015335;28;20450;-70
2023/08/16 12:05:36;;;;;;;5.40;3.90;;;21.70;99.90;;;;;;5033180;28;20423;-70
2023/08/16 12:08:07;;;;;;;6.43;3.87;;;21.70;99.90;;;;;;5033682;28;20885;-71
2023/08/16 12:10:36;;;;;;;5.20;3.53;;;21.70;99.90;;;;;;5033413;28;20537;-70
2023/08/16 12:13:14;;;;;;;5.90;4.23;;;21.70;99.90;;;;;;5033055;28;20474;-71
2023/08/16 12:15:43;;;;;;;5.50;3.90;;;21.80;99.90;;;;;;5033099;28;20423;-71
2023/08/16 12:18:12;;;;;;;6.50;4.20;;;21.70;99.90;;;;;;5033048;28;20437;-70
2023/08/16 12:20:40;;;;;;;4.63;4.03;;;21.70;99.90;;;;;;5037177;28;20436;-71
2023/08/16 12:23:10;;;;;;;4.97;3.47;;;21.80;99.90;;;;;;5037912;28;20447;-71
2023/08/16 12:25:38;;;;;;;3.60;3.10;;;21.80;99.90;;;;;;5034404;28;20470;-71
2023/08/16 12:28:06;;;;;;;4.67;3.63;;;21.80;99.90;;;;;;5036798;28;20975;-71
2023/08/16 12:30:35;;;;;;;6.70;3.73;;;21.80;99.90;;;;;;5036522;28;20566;-71
2023/08/16 12:33:04;;;;;;;5.00;3.40;;;21.80;99.90;;;;;;5034344;28;20956;-71
2023/08/16 12:35:32;;;;;;;5.77;3.63;;;21.90;99.90;;;;;;5016577;28;20451;-71
2023/08/16 12:38:03;;;;;;;4.30;3.10;;;21.90;99.90;;;;;;5015991;28;21046;-71
2023/08/16 12:40:33;;;;;;;6.50;3.87;;;21.90;99.90;;;;;;5034496;28;20447;-71
2023/08/16 12:43:02;;;;;;;4.70;3.17;;;22.00;99.90;;;;;;5034226;28;20434;-70
2023/08/16 12:45:30;;;;;;;5.47;3.20;;;22.00;99.90;;;;;;5033069;28;20446;-70
2023/08/16 12:47:59;;;;;;;4.53;4.07;;;22.10;99.90;;;;;;5033543;28;20434;-70
2023/08/16 12:50:27;;;;;;;7.77;3.70;;;22.10;99.90;;;;;;5033060;28;20493;-71
2023/08/16 12:52:55;;;;;;;5.07;3.50;;;22.20;99.90;;;;;;5032916;28;20941;-71
2023/08/16 12:58:06;;;;;;;6.47;3.90;;;22.20;99.90;;;;;;4993155;28;20519;-71